Time;durP1;ratioP1;P1;durP2;ratioP2;P2;SDS_P1;SDS_P2;PMS_P1;PMS_P2;Temp;Humidity;BMP_temperature;BMP_pressure;BME280_temperature;BME280_humidity;BME280_pressure;Samples;Min_cycle;Max_cycle;Signal;HPM_P1;HPM_P2
2022/08/28 08:16:26;;;;;;;1.40;1.30;;;27.00;71.30;;;;;;4932956;29;20522;-87
2022/08/28 08:18:53;;;;;;;1.57;1.47;;;26.90;71.10;;;;;;4949714;29;20436;-89
2022/08/28 08:21:22;;;;;;;1.70;1.60;;;27.00;70.90;;;;;;4950364;29;20498;-87
2022/08/28 08:23:50;;;;;;;2.33;1.83;;;27.00;70.50;;;;;;4945136;29;20458;-83
2022/08/28 08:26:18;;;;;;;1.73;1.47;;;27.00;70.40;;;;;;4956028;29;20434;-85
2022/08/28 08:28:46;;;;;;;1.53;1.20;;;27.00;70.50;;;;;;4957485;29;20589;-91
2022/08/28 08:31:16;;;;;;;1.33;1.23;;;27.10;70.50;;;;;;4956848;28;20576;-88
2022/08/28 08:33:46;;;;;;;4.70;1.90;;;27.20;69.90;;;;;;4956970;29;20442;-88
2022/08/28 08:36:15;;;;;;;4.67;2.27;;;27.00;68.50;;;;;;4956898;29;20540;-89
2022/08/28 08:38:42;;;;;;;2.60;2.00;;;26.90;66.80;;;;;;4956926;29;20477;-86
2022/08/28 08:41:18;;;;;;;3.30;2.20;;;26.80;66.20;;;;;;4957214;29;20545;-89
2022/08/28 09:17:35;;;;;;;2.23;1.70;;;27.00;69.00;;;;;;4797120;29;20634;-88
2022/08/28 09:20:03;;;;;;;2.13;1.87;;;27.00;69.00;;;;;;4823299;29;20452;-85
2022/08/28 09:22:30;;;;;;;2.37;1.67;;;27.00;69.30;;;;;;4823010;29;20469;-85
2022/08/28 09:24:58;;;;;;;1.63;1.53;;;27.10;69.30;;;;;;4874273;29;20653;-88
2022/08/28 09:27:27;;;;;;;2.47;1.73;;;27.10;69.20;;;;;;4897171;29;20815;-88
2022/08/28 09:30:00;;;;;;;2.60;1.60;;;27.10;69.40;;;;;;4898201;29;20440;-84
2022/08/28 09:32:33;;;;;;;1.60;1.50;;;27.10;69.40;;;;;;4896727;29;20603;-84
2022/08/28 09:35:08;;;;;;;1.50;1.40;;;27.10;69.20;;;;;;4895937;29;20549;-84
2022/08/28 09:37:36;;;;;;;2.90;1.57;;;27.10;69.30;;;;;;4896143;29;20852;-87
2022/08/28 09:40:19;;;;;;;4.37;2.00;;;27.10;69.50;;;;;;4900870;29;20448;-83
2022/08/28 09:45:56;;;;;;;2.80;1.83;;;27.10;69.60;;;;;;4895665;29;20460;-84
2022/08/28 09:48:33;;;;;;;2.90;1.87;;;27.10;69.50;;;;;;4897024;29;20974;-84
2022/08/28 09:51:03;;;;;;;3.43;2.00;;;27.10;69.20;;;;;;4907142;29;20487;-84
2022/08/28 09:53:32;;;;;;;2.93;1.90;;;27.10;69.10;;;;;;4914093;29;20475;-84
2022/08/28 09:56:15;;;;;;;2.70;1.93;;;27.10;69.00;;;;;;4914438;29;20452;-85
2022/08/28 09:58:45;;;;;;;5.53;2.00;;;27.20;69.00;;;;;;4912595;29;20455;-84
2022/08/28 10:01:27;;;;;;;2.27;1.43;;;27.20;69.20;;;;;;4905721;29;20533;-89
2022/08/28 10:04:08;;;;;;;1.77;1.33;;;27.20;69.90;;;;;;4913808;29;20452;-84
2022/08/28 10:06:36;;;;;;;2.20;1.47;;;27.20;69.00;;;;;;4914166;29;20824;-84
2022/08/28 10:09:16;;;;;;;2.63;1.53;;;27.20;69.00;;;;;;4914319;29;20546;-85
2022/08/28 10:11:53;;;;;;;4.23;1.30;;;27.20;68.80;;;;;;4914518;29;20496;-87
2022/08/28 10:14:34;;;;;;;2.20;1.50;;;27.20;68.90;;;;;;4923371;29;20434;-84
2022/08/28 10:17:13;;;;;;;2.10;1.73;;;27.20;68.80;;;;;;4947490;29;20444;-84
2022/08/28 10:19:51;;;;;;;3.13;1.40;;;27.20;68.60;;;;;;4943434;29;20474;-88
2022/08/28 10:22:28;;;;;;;1.70;1.60;;;27.20;68.50;;;;;;4946769;29;20462;-84
2022/08/28 10:25:08;;;;;;;2.63;1.40;;;27.30;68.80;;;;;;4949419;28;20845;-83
2022/08/28 10:27:53;;;;;;;1.80;1.40;;;27.30;68.50;;;;;;4940153;29;20444;-83
2022/08/28 10:30:22;;;;;;;3.43;1.37;;;27.30;68.80;;;;;;4954616;29;20448;-84
2022/08/28 10:33:07;;;;;;;2.50;1.50;;;27.20;68.80;;;;;;4945923;29;20497;-84
2022/08/28 10:35:46;;;;;;;1.30;1.20;;;27.30;69.60;;;;;;4951838;29;20438;-84
2022/08/28 10:38:16;;;;;;;3.37;1.70;;;27.20;68.50;;;;;;4954301;29;20446;-84
2022/08/28 10:40:51;;;;;;;1.83;1.60;;;27.20;68.70;;;;;;4954255;29;20971;-84
2022/08/28 10:43:24;;;;;;;2.03;1.70;;;27.30;68.70;;;;;;4953289;29;20793;-84
2022/08/28 10:45:53;;;;;;;3.50;1.50;;;27.30;68.70;;;;;;4952477;28;20454;-88
2022/08/28 10:48:24;;;;;;;2.70;1.60;;;27.30;69.20;;;;;;4954334;28;20528;-84
2022/08/28 10:50:55;;;;;;;3.00;1.30;;;27.30;69.10;;;;;;4953841;29;21053;-84
2022/08/28 10:53:28;;;;;;;2.03;1.27;;;27.30;69.00;;;;;;4954125;29;20477;-84
2022/08/28 10:55:58;;;;;;;1.70;1.30;;;27.30;69.50;;;;;;4958021;28;20450;-88
2022/08/28 10:58:27;;;;;;;4.33;1.90;;;27.30;70.50;;;;;;4957998;28;20446;-88
2022/08/28 11:00:56;;;;;;;1.90;1.60;;;27.30;69.90;;;;;;4957748;28;20456;-84
2022/08/28 11:03:25;;;;;;;1.70;1.40;;;27.30;69.90;;;;;;4956785;29;20544;-85
2022/08/28 11:05:56;;;;;;;2.43;1.57;;;27.30;69.90;;;;;;4957923;29;20616;-84
2022/08/28 11:08:29;;;;;;;2.20;1.17;;;27.40;70.00;;;;;;4957024;28;20453;-86
2022/08/28 11:10:58;;;;;;;2.40;1.40;;;27.40;70.00;;;;;;4957694;28;20470;-87
2022/08/28 11:13:43;;;;;;;1.60;1.50;;;27.30;69.20;;;;;;4956851;28;20544;-87
2022/08/28 11:37:40;;;;;;;2.23;1.77;;;27.20;68.40;;;;;;4903967;29;20627;-83
2022/08/28 11:40:16;;;;;;;3.23;1.70;;;27.20;70.10;;;;;;4920707;29;20534;-89
2022/08/28 11:42:47;;;;;;;3.83;1.30;;;27.30;69.10;;;;;;4919527;29;20565;-84
2022/08/28 11:45:20;;;;;;;2.67;1.60;;;27.20;69.00;;;;;;4939039;29;20542;-84
2022/08/28 11:47:55;;;;;;;2.37;1.70;;;27.30;68.50;;;;;;4938553;29;20963;-84
2022/08/28 11:50:26;;;;;;;10.27;5.67;;;27.30;68.50;;;;;;4938288;29;20443;-83
2022/08/28 11:53:26;;;;;;;4.50;3.57;;;27.30;69.20;;;;;;4937819;29;20634;-84
2022/08/28 11:56:27;;;;;;;12.80;4.60;;;27.30;69.30;;;;;;4937591;29;20540;-88
2022/08/28 11:59:00;;;;;;;7.00;4.07;;;27.30;69.30;;;;;;4920347;29;20496;-85
2022/08/28 12:01:29;;;;;;;7.10;4.37;;;27.30;69.30;;;;;;4935271;29;20439;-84
2022/08/28 12:03:59;;;;;;;8.23;4.20;;;27.30;69.30;;;;;;4937050;29;20450;-84
2022/08/28 12:07:02;;;;;;;8.43;3.30;;;27.30;69.30;;;;;;4936563;29;20970;-83
2022/08/28 12:09:44;;;;;;;4.17;2.90;;;27.30;69.00;;;;;;4907943;29;20486;-88
2022/08/28 12:12:31;;;;;;;5.23;3.20;;;27.30;69.20;;;;;;4938341;29;20494;-84
2022/08/28 12:15:02;;;;;;;2.27;2.00;;;27.30;69.00;;;;;;4937705;29;20443;-84
2022/08/28 12:17:48;;;;;;;5.97;3.30;;;27.30;68.90;;;;;;4937924;29;20451;-84
2022/08/28 12:20:23;;;;;;;4.87;2.73;;;27.30;68.70;;;;;;4918912;29;20448;-84
2022/08/28 12:22:54;;;;;;;4.23;2.67;;;27.30;68.60;;;;;;4919349;29;20475;-84
2022/08/28 12:25:33;;;;;;;4.23;2.90;;;27.30;69.20;;;;;;4932687;29;20451;-85
2022/08/28 12:28:14;;;;;;;3.80;2.43;;;27.40;68.90;;;;;;4938136;29;20797;-86
2022/08/28 12:30:48;;;;;;;3.97;2.63;;;27.40;69.20;;;;;;4937873;29;20522;-83
2022/08/28 12:33:23;;;;;;;3.87;2.33;;;27.40;69.00;;;;;;4937673;29;20512;-86
2022/08/28 12:35:50;;;;;;;5.97;2.97;;;27.40;69.00;;;;;;4937508;29;20542;-90
2022/08/28 12:38:20;;;;;;;12.20;4.00;;;27.40;69.20;;;;;;4937534;29;20471;-87
2022/08/28 12:40:52;;;;;;;5.73;2.80;;;27.40;69.60;;;;;;4918728;29;20888;-85
2022/08/28 12:43:27;;;;;;;4.90;2.50;;;27.40;70.00;;;;;;4918380;29;20444;-90
2022/08/28 12:45:56;;;;;;;5.73;2.60;;;27.40;68.70;;;;;;4929286;29;20478;-90
2022/08/28 12:48:25;;;;;;;6.23;2.70;;;27.30;68.90;;;;;;4937456;29;20451;-89
2022/08/28 12:51:01;;;;;;;6.73;2.50;;;27.40;69.50;;;;;;4937533;29;20534;-89
2022/08/28 12:53:38;;;;;;;9.23;2.73;;;27.40;68.40;;;;;;4936518;29;20572;-91
2022/08/28 12:56:08;;;;;;;4.87;2.50;;;27.40;69.00;;;;;;4937250;29;20447;-87
2022/08/28 12:58:39;;;;;;;3.93;2.33;;;27.40;69.20;;;;;;4937353;29;20453;-88
2022/08/28 13:01:09;;;;;;;5.33;2.30;;;27.40;69.50;;;;;;4937348;29;20447;-88
2022/08/28 13:03:46;;;;;;;5.17;2.40;;;27.40;68.50;;;;;;4937239;29;20916;-88
2022/08/28 13:06:13;;;;;;;3.30;2.00;;;27.40;68.00;;;;;;4937067;29;20542;-88
2022/08/28 13:08:41;;;;;;;6.63;2.57;;;27.40;68.20;;;;;;4937350;29;20439;-88
2022/08/28 13:11:09;;;;;;;3.50;2.03;;;27.40;68.20;;;;;;4936984;29;20541;-88
2022/08/28 13:13:39;;;;;;;5.57;2.70;;;27.40;68.20;;;;;;4936744;29;20479;-87
2022/08/28 13:16:08;;;;;;;4.77;1.90;;;27.40;68.20;;;;;;4936895;29;20510;-88
2022/08/28 13:18:50;;;;;;;5.67;1.90;;;27.40;68.30;;;;;;4935628;29;20542;-87
2022/08/28 13:21:28;;;;;;;4.27;1.87;;;27.40;68.20;;;;;;4936621;29;20455;-87
2022/08/28 13:23:57;;;;;;;2.80;1.70;;;27.40;68.30;;;;;;4936746;29;20454;-88
2022/08/28 13:26:29;;;;;;;2.93;1.40;;;27.40;68.40;;;;;;4936784;29;20454;-88
2022/08/28 13:28:58;;;;;;;3.50;2.20;;;27.40;68.50;;;;;;4937044;29;20523;-88
2022/08/28 13:31:30;;;;;;;4.73;2.33;;;27.40;68.50;;;;;;4936995;29;20538;-88
2022/08/28 13:34:08;;;;;;;4.80;2.33;;;27.40;68.50;;;;;;4936957;29;20538;-87
2022/08/28 13:36:46;;;;;;;1.93;1.53;;;27.40;68.30;;;;;;4936606;29;20435;-87
2022/08/28 13:39:15;;;;;;;2.10;1.47;;;27.40;68.30;;;;;;4936709;29;20947;-87
2022/08/28 13:41:47;;;;;;;5.70;1.50;;;27.40;68.50;;;;;;4936504;29;20538;-87
2022/08/28 13:44:28;;;;;;;2.43;1.80;;;27.40;68.40;;;;;;4936901;29;20435;-88
2022/08/28 13:46:55;;;;;;;1.70;1.40;;;27.40;68.30;;;;;;4936665;29;20451;-88
2022/08/28 13:49:22;;;;;;;4.07;1.40;;;27.40;68.50;;;;;;4936791;29;20459;-88
2022/08/28 13:51:49;;;;;;;1.57;1.47;;;27.40;68.30;;;;;;4936605;29;20489;-88
2022/08/28 13:54:16;;;;;;;4.03;2.00;;;27.40;68.30;;;;;;4936370;29;20447;-87
2022/08/28 13:56:44;;;;;;;2.80;2.03;;;27.40;68.40;;;;;;4936587;29;20462;-88
2022/08/28 13:59:12;;;;;;;3.03;1.60;;;27.40;68.40;;;;;;4936667;29;20526;-87
2022/08/28 14:04:23;;;;;;;4.17;1.63;;;27.40;68.40;;;;;;4936475;29;20930;-87
2022/08/28 14:06:49;;;;;;;2.07;1.30;;;27.40;68.30;;;;;;4936584;29;20930;-88
2022/08/28 14:09:16;;;;;;;1.80;1.50;;;27.40;68.30;;;;;;4936528;29;20475;-87
2022/08/28 14:11:45;;;;;;;2.03;1.50;;;27.40;68.40;;;;;;4936248;29;20450;-88
2022/08/28 14:14:12;;;;;;;2.70;1.53;;;27.40;68.30;;;;;;4936295;29;20522;-88
2022/08/28 14:16:40;;;;;;;2.47;1.40;;;27.40;68.20;;;;;;4936452;29;20520;-87
2022/08/28 14:19:07;;;;;;;1.67;1.43;;;27.40;68.30;;;;;;4936274;29;20474;-88
2022/08/28 14:21:35;;;;;;;2.73;1.43;;;27.40;68.30;;;;;;4936410;29;20443;-88
2022/08/28 14:24:03;;;;;;;2.63;1.33;;;27.40;69.20;;;;;;4936047;29;20457;-88
2022/08/28 14:26:30;;;;;;;2.33;1.80;;;27.40;68.20;;;;;;4936273;29;20443;-88
2022/08/28 14:28:59;;;;;;;1.50;1.40;;;27.40;68.20;;;;;;4936853;29;20511;-88
2022/08/28 14:31:27;;;;;;;1.87;1.63;;;27.40;68.10;;;;;;4940342;29;20439;-88
2022/08/28 14:33:54;;;;;;;1.60;1.40;;;27.40;68.10;;;;;;4940106;29;20494;-87
2022/08/28 14:36:24;;;;;;;2.43;1.60;;;27.40;68.10;;;;;;4940030;29;20542;-88
2022/08/28 14:38:52;;;;;;;1.47;1.37;;;27.40;68.10;;;;;;4940257;29;20842;-88
2022/08/28 14:41:19;;;;;;;2.10;1.57;;;27.40;68.10;;;;;;4940108;29;20469;-87
2022/08/28 14:43:48;;;;;;;1.53;1.33;;;27.40;68.10;;;;;;4939947;29;20461;-87
2022/08/28 14:46:18;;;;;;;2.40;1.50;;;27.40;67.90;;;;;;4940314;29;20495;-88
2022/08/28 14:48:45;;;;;;;1.37;1.10;;;27.40;67.80;;;;;;4940155;29;20771;-88
2022/08/28 14:51:12;;;;;;;1.77;1.30;;;27.40;68.00;;;;;;4939889;29;20529;-88
2022/08/28 14:53:39;;;;;;;1.37;1.27;;;27.40;68.00;;;;;;4939632;29;20497;-88
2022/08/28 14:56:07;;;;;;;2.40;1.50;;;27.40;68.00;;;;;;4939528;29;20537;-88
2022/08/28 14:58:34;;;;;;;1.30;1.10;;;27.40;67.90;;;;;;4939772;29;20801;-88
2022/08/28 15:01:02;;;;;;;1.27;1.17;;;27.40;68.00;;;;;;4939749;29;20450;-87
2022/08/28 15:03:31;;;;;;;1.50;1.40;;;27.40;67.80;;;;;;4939572;29;20479;-88
2022/08/28 15:06:01;;;;;;;3.43;1.47;;;27.40;67.90;;;;;;4939494;29;20443;-88
2022/08/28 15:08:28;;;;;;;1.80;1.20;;;27.40;67.90;;;;;;4939317;29;20453;-88
2022/08/28 15:10:55;;;;;;;1.27;1.00;;;27.30;67.80;;;;;;4939582;29;20526;-88
2022/08/28 15:13:23;;;;;;;1.40;1.20;;;27.40;68.00;;;;;;4939352;29;20490;-88
2022/08/28 15:15:59;;;;;;;1.20;1.10;;;27.30;67.70;;;;;;4939393;29;20455;-87
2022/08/28 15:18:26;;;;;;;1.40;1.30;;;27.40;67.80;;;;;;4939226;29;20435;-88
2022/08/28 15:20:55;;;;;;;1.77;1.17;;;27.30;67.60;;;;;;4939108;29;20530;-88
2022/08/28 15:23:22;;;;;;;1.30;1.20;;;27.30;67.60;;;;;;4939236;29;20439;-88
2022/08/28 15:25:49;;;;;;;1.50;1.20;;;27.30;67.60;;;;;;4939368;29;20453;-88
2022/08/28 15:28:15;;;;;;;1.30;1.20;;;27.30;67.60;;;;;;4939855;29;20542;-88
2022/08/28 15:30:43;;;;;;;2.50;1.27;;;27.30;67.60;;;;;;4939180;29;20494;-88
2022/08/28 15:33:10;;;;;;;1.10;1.00;;;27.30;67.50;;;;;;4938804;29;20990;-88
2022/08/28 15:35:37;;;;;;;1.50;1.40;;;27.30;67.50;;;;;;4939101;29;20443;-88
2022/08/28 15:38:06;;;;;;;1.80;1.30;;;27.30;67.60;;;;;;4938796;29;20475;-88
2022/08/28 15:43:18;;;;;;;1.40;1.30;;;27.30;67.50;;;;;;4939099;29;20486;-88
2022/08/28 15:45:45;;;;;;;1.90;1.23;;;27.30;67.50;;;;;;4938956;29;20530;-88
2022/08/28 15:48:13;;;;;;;1.53;1.23;;;27.30;67.40;;;;;;4939198;29;20797;-87
2022/08/28 15:50:41;;;;;;;1.30;1.20;;;27.30;67.30;;;;;;4938822;29;20443;-88
2022/08/28 15:53:09;;;;;;;2.50;1.40;;;27.30;67.30;;;;;;4938708;29;20586;-88
2022/08/28 15:55:36;;;;;;;1.17;0.90;;;27.30;67.40;;;;;;4938816;29;20454;-88
2022/08/28 15:58:02;;;;;;;1.10;0.90;;;27.30;67.30;;;;;;4938816;29;20447;-88
2022/08/28 16:00:29;;;;;;;1.73;1.17;;;27.30;67.40;;;;;;4938686;29;20533;-88
2022/08/28 16:02:59;;;;;;;1.70;1.30;;;27.30;67.40;;;;;;4938465;29;20529;-88
2022/08/28 16:05:27;;;;;;;1.10;1.00;;;27.30;67.30;;;;;;4938291;29;20447;-88
2022/08/28 16:07:54;;;;;;;1.20;1.10;;;27.30;67.20;;;;;;4938633;29;20443;-88
2022/08/28 16:10:24;;;;;;;1.43;0.90;;;27.30;67.30;;;;;;4938328;29;20534;-88
2022/08/28 16:12:51;;;;;;;1.43;1.20;;;27.30;67.20;;;;;;4938512;29;20553;-88
2022/08/28 16:15:18;;;;;;;2.33;1.20;;;27.30;67.30;;;;;;4938192;29;20451;-87
2022/08/28 16:17:45;;;;;;;1.27;1.00;;;27.30;67.30;;;;;;4938332;29;20454;-88
2022/08/28 16:20:12;;;;;;;1.53;1.17;;;27.30;67.20;;;;;;4938179;29;20534;-88
2022/08/28 16:22:39;;;;;;;1.20;1.10;;;27.30;67.10;;;;;;4938348;29;20540;-88
2022/08/28 16:25:08;;;;;;;1.27;1.17;;;27.30;67.10;;;;;;4938215;29;20866;-88
2022/08/28 16:27:36;;;;;;;2.03;1.00;;;27.30;67.10;;;;;;4938251;29;20815;-88
2022/08/28 16:30:04;;;;;;;1.20;1.00;;;27.30;67.10;;;;;;4938092;29;20538;-88
2022/08/28 16:32:32;;;;;;;1.10;1.00;;;27.30;67.10;;;;;;4937980;29;20804;-88
2022/08/28 16:34:59;;;;;;;1.40;1.30;;;27.30;67.90;;;;;;4937757;29;20546;-88
2022/08/28 16:37:26;;;;;;;1.63;1.27;;;27.30;67.10;;;;;;4937529;29;20519;-88
2022/08/28 16:39:54;;;;;;;1.00;0.90;;;27.30;67.10;;;;;;4937940;29;20508;-88
2022/08/28 16:42:21;;;;;;;1.30;1.10;;;27.30;67.10;;;;;;4937924;29;20868;-88
2022/08/28 16:44:50;;;;;;;1.10;1.00;;;27.40;67.20;;;;;;4937845;29;20447;-88
2022/08/28 16:47:17;;;;;;;1.00;0.90;;;27.30;67.20;;;;;;4937542;29;21026;-88
2022/08/28 16:49:43;;;;;;;1.60;1.07;;;27.30;67.20;;;;;;4937586;29;20947;-88
2022/08/28 16:52:10;;;;;;;0.87;0.80;;;27.30;67.10;;;;;;4937390;29;20957;-88
2022/08/28 16:54:37;;;;;;;1.20;0.93;;;27.30;67.10;;;;;;4937385;29;20928;-88
2022/08/28 16:57:04;;;;;;;1.00;0.90;;;27.30;67.10;;;;;;4937432;29;20526;-88
2022/08/28 16:59:31;;;;;;;1.70;1.20;;;27.30;67.10;;;;;;4937605;29;20534;-88
2022/08/28 17:01:59;;;;;;;1.57;1.23;;;27.30;67.10;;;;;;4937202;29;20541;-88
2022/08/28 17:04:26;;;;;;;1.20;1.10;;;27.30;67.10;;;;;;4937296;29;20509;-88
2022/08/28 17:06:53;;;;;;;1.20;1.10;;;27.30;67.90;;;;;;4937294;29;20466;-88
2022/08/28 17:09:20;;;;;;;1.20;0.90;;;27.30;67.00;;;;;;4937439;29;20443;-88
2022/08/28 17:11:47;;;;;;;1.20;1.10;;;27.30;67.10;;;;;;4937160;29;20522;-88
2022/08/28 17:14:14;;;;;;;1.47;1.37;;;27.30;67.10;;;;;;4937578;29;20829;-87
2022/08/28 17:16:41;;;;;;;1.10;1.00;;;27.30;67.10;;;;;;4937291;29;20482;-88
2022/08/28 17:19:09;;;;;;;1.00;0.90;;;27.30;67.10;;;;;;4937251;29;20579;-88
2022/08/28 17:24:17;;;;;;;1.30;1.20;;;27.30;67.00;;;;;;4905239;29;20454;-88
2022/08/28 17:26:44;;;;;;;1.47;1.20;;;27.30;67.10;;;;;;4937422;29;20443;-88
2022/08/28 17:29:11;;;;;;;0.97;0.80;;;27.30;67.90;;;;;;4936863;29;21023;-88
2022/08/28 17:31:38;;;;;;;1.10;1.00;;;27.30;67.10;;;;;;4936837;29;20454;-88
2022/08/28 17:34:06;;;;;;;1.20;1.10;;;27.30;67.10;;;;;;4936888;29;20929;-88
2022/08/28 17:36:35;;;;;;;1.10;1.00;;;27.30;67.20;;;;;;4936759;29;20882;-88
2022/08/28 17:39:04;;;;;;;1.23;1.13;;;27.30;67.00;;;;;;4936912;29;20447;-88
2022/08/28 17:41:32;;;;;;;1.13;1.03;;;27.30;67.10;;;;;;4936850;29;20454;-88
2022/08/28 17:43:59;;;;;;;2.30;0.90;;;27.30;67.10;;;;;;4936776;29;20966;-88
2022/08/28 17:46:26;;;;;;;1.10;1.00;;;27.30;67.10;;;;;;4937593;29;20482;-88
2022/08/28 17:48:53;;;;;;;1.20;1.10;;;27.30;67.10;;;;;;4936804;29;20522;-88
2022/08/28 17:51:20;;;;;;;2.07;1.00;;;27.30;67.00;;;;;;4936796;29;20498;-88
2022/08/28 17:53:48;;;;;;;1.40;1.20;;;27.30;67.10;;;;;;4936385;29;20582;-88
2022/08/28 17:56:15;;;;;;;1.10;1.00;;;27.30;67.90;;;;;;4936422;29;20446;-88
2022/08/28 17:58:42;;;;;;;1.30;1.20;;;27.30;67.00;;;;;;4936623;29;21010;-88
2022/08/28 18:01:09;;;;;;;1.47;1.17;;;27.30;67.10;;;;;;4936280;29;20526;-88
2022/08/28 18:03:36;;;;;;;1.10;1.00;;;27.30;67.00;;;;;;4935773;29;20447;-88
2022/08/28 18:06:05;;;;;;;1.07;0.97;;;27.30;67.00;;;;;;4936590;29;20450;-88
2022/08/28 18:08:32;;;;;;;1.10;1.00;;;27.30;67.00;;;;;;4936259;29;20935;-88
2022/08/28 18:11:00;;;;;;;0.90;0.80;;;27.30;66.90;;;;;;4936480;29;20490;-88
2022/08/28 18:13:27;;;;;;;1.10;1.00;;;27.30;67.00;;;;;;4936266;29;21101;-88
2022/08/28 18:15:54;;;;;;;1.40;1.30;;;27.30;66.90;;;;;;4936410;29;20636;-88
2022/08/28 18:18:21;;;;;;;1.23;1.13;;;27.30;66.90;;;;;;4936274;29;20533;-87
2022/08/28 18:20:48;;;;;;;1.10;1.00;;;27.30;67.70;;;;;;4936443;29;20454;-88
2022/08/28 18:23:15;;;;;;;1.93;1.20;;;27.30;66.80;;;;;;4936596;29;20874;-88
2022/08/28 18:25:43;;;;;;;1.30;1.10;;;27.30;66.80;;;;;;4936110;29;20455;-88
2022/08/28 18:28:15;;;;;;;1.20;1.10;;;27.20;66.70;;;;;;4936340;29;20451;-88
2022/08/28 18:30:43;;;;;;;1.10;1.00;;;27.20;66.70;;;;;;4936102;29;20931;-88
2022/08/28 18:33:11;;;;;;;1.13;1.03;;;27.20;66.60;;;;;;4935920;29;22910;-88
2022/08/28 18:35:38;;;;;;;1.30;1.00;;;27.20;66.70;;;;;;4936316;29;20457;-88
2022/08/28 18:38:05;;;;;;;1.13;1.03;;;27.20;66.70;;;;;;4935880;29;20578;-88
2022/08/28 18:40:33;;;;;;;1.30;1.10;;;27.20;66.70;;;;;;4935912;29;20447;-88
2022/08/28 18:43:00;;;;;;;1.20;1.10;;;27.20;66.70;;;;;;4936111;29;20546;-88
2022/08/28 18:45:30;;;;;;;1.03;0.93;;;27.20;66.70;;;;;;4936247;29;20446;-88
2022/08/28 18:47:57;;;;;;;1.00;0.90;;;27.20;66.60;;;;;;4936794;29;20447;-88
2022/08/28 18:50:24;;;;;;;1.03;0.93;;;27.20;66.70;;;;;;4936215;29;20538;-88
2022/08/28 18:52:53;;;;;;;1.40;1.10;;;27.20;66.70;;;;;;4935910;29;20842;-88
2022/08/28 18:55:23;;;;;;;1.20;1.10;;;27.20;66.70;;;;;;4935978;29;20494;-88
2022/08/28 18:57:50;;;;;;;1.10;1.00;;;27.20;66.60;;;;;;4935909;29;20946;-87
2022/08/28 19:00:17;;;;;;;1.20;1.10;;;27.20;66.60;;;;;;4935717;29;20457;-88
2022/08/28 19:02:45;;;;;;;1.30;1.07;;;27.20;66.60;;;;;;4936005;29;20443;-88
2022/08/28 19:05:13;;;;;;;1.03;0.90;;;27.20;66.50;;;;;;4936030;29;20865;-88
2022/08/28 19:07:40;;;;;;;2.03;1.20;;;27.20;66.50;;;;;;4935934;29;20448;-88
2022/08/28 19:10:09;;;;;;;1.30;1.03;;;27.20;66.60;;;;;;4935660;29;20447;-88
2022/08/28 19:12:37;;;;;;;1.13;1.03;;;27.20;66.50;;;;;;4935745;29;20534;-88
2022/08/28 19:15:06;;;;;;;1.40;1.30;;;27.20;66.40;;;;;;4936253;29;20903;-88
2022/08/28 19:17:35;;;;;;;1.40;1.27;;;27.20;66.40;;;;;;4939236;29;20819;-88
2022/08/28 19:20:06;;;;;;;1.10;1.00;;;27.20;66.40;;;;;;4939077;29;20957;-88
2022/08/28 19:22:33;;;;;;;2.40;1.70;;;27.20;66.50;;;;;;4939478;29;20442;-88
2022/08/28 19:25:03;;;;;;;1.40;1.07;;;27.20;66.40;;;;;;4939126;29;20443;-88
2022/08/28 19:27:30;;;;;;;1.20;1.10;;;27.20;66.40;;;;;;4939419;29;20525;-87
2022/08/28 19:29:57;;;;;;;1.20;1.00;;;27.20;66.40;;;;;;4939096;29;20522;-88
2022/08/28 19:32:24;;;;;;;1.60;1.10;;;27.20;66.40;;;;;;4939300;29;20959;-88
2022/08/28 19:34:51;;;;;;;1.07;0.90;;;27.20;66.30;;;;;;4938815;29;21002;-88
2022/08/28 19:37:19;;;;;;;1.40;1.30;;;27.20;66.40;;;;;;4938975;29;20479;-87
2022/08/28 19:39:46;;;;;;;1.20;1.10;;;27.20;66.40;;;;;;4939080;29;20522;-88
2022/08/28 19:42:13;;;;;;;1.30;0.90;;;27.20;67.20;;;;;;4939009;29;20456;-88
2022/08/28 19:44:40;;;;;;;1.37;1.27;;;27.20;66.30;;;;;;4939035;29;20471;-88
2022/08/28 19:47:07;;;;;;;1.40;1.30;;;27.20;66.30;;;;;;4939030;29;20820;-88
2022/08/28 19:49:34;;;;;;;1.30;1.20;;;27.20;66.30;;;;;;4938864;29;20450;-88
2022/08/28 19:52:01;;;;;;;1.40;1.30;;;27.20;67.30;;;;;;4938823;29;20538;-88
2022/08/28 19:54:30;;;;;;;1.30;1.20;;;27.20;66.50;;;;;;4938741;29;20581;-88
2022/08/28 19:56:58;;;;;;;1.83;1.10;;;27.20;66.30;;;;;;4938731;29;20559;-88
2022/08/28 19:59:25;;;;;;;1.30;1.20;;;27.20;66.40;;;;;;4938502;29;20954;-89
2022/08/28 20:01:51;;;;;;;1.23;1.13;;;27.20;66.40;;;;;;4938634;29;20483;-88
2022/08/28 20:04:18;;;;;;;1.20;1.10;;;27.20;66.40;;;;;;4938629;29;20470;-88
2022/08/28 20:06:46;;;;;;;1.27;1.03;;;27.20;66.40;;;;;;4938288;29;20458;-88
2022/08/28 20:09:13;;;;;;;1.73;1.30;;;27.20;66.40;;;;;;4938371;29;20953;-88
2022/08/28 20:11:43;;;;;;;1.10;0.90;;;27.20;66.40;;;;;;4938258;29;20546;-88
2022/08/28 20:14:10;;;;;;;1.10;1.00;;;27.20;66.40;;;;;;4938408;29;20527;-88
2022/08/28 20:16:40;;;;;;;1.83;1.30;;;27.20;66.50;;;;;;4938079;29;20534;-88
2022/08/28 20:19:09;;;;;;;1.07;0.97;;;27.20;66.40;;;;;;4938312;29;20554;-88
2022/08/28 20:21:37;;;;;;;1.07;0.97;;;27.20;66.50;;;;;;4938239;29;20525;-88
2022/08/28 20:24:04;;;;;;;1.30;1.00;;;27.20;66.50;;;;;;4938072;29;20538;-88
2022/08/28 20:26:31;;;;;;;1.13;0.90;;;27.20;66.40;;;;;;4937523;29;20490;-88
2022/08/28 20:28:59;;;;;;;1.30;1.10;;;27.20;66.50;;;;;;4937913;29;20451;-88
2022/08/28 20:31:26;;;;;;;1.77;1.00;;;27.20;66.40;;;;;;4938093;29;20962;-88
2022/08/28 20:33:54;;;;;;;1.30;1.20;;;27.20;66.60;;;;;;4938090;29;20562;-87
2022/08/28 20:36:22;;;;;;;0.97;0.87;;;27.10;66.50;;;;;;4937628;29;20502;-88
2022/08/28 20:38:48;;;;;;;1.10;0.90;;;27.10;66.50;;;;;;4938042;29;20502;-87
2022/08/28 20:41:18;;;;;;;1.00;0.90;;;27.10;66.50;;;;;;4937893;29;20442;-88
2022/08/28 20:43:46;;;;;;;1.07;0.97;;;27.20;66.70;;;;;;4937669;29;20982;-87
2022/08/28 20:46:16;;;;;;;1.10;1.00;;;27.10;66.50;;;;;;4937896;29;20503;-88
2022/08/28 20:48:44;;;;;;;1.30;1.20;;;27.10;66.50;;;;;;4937901;29;20804;-88
2022/08/28 20:51:12;;;;;;;1.13;1.03;;;27.10;66.60;;;;;;4937595;29;20537;-88
2022/08/28 20:53:39;;;;;;;1.20;1.10;;;27.10;66.60;;;;;;4937564;29;20809;-88
2022/08/28 20:56:07;;;;;;;1.20;1.10;;;27.10;66.60;;;;;;4937644;29;20546;-88
2022/08/28 20:58:34;;;;;;;1.10;1.00;;;27.10;66.50;;;;;;4937372;29;20534;-88
2022/08/28 21:01:01;;;;;;;1.30;1.00;;;27.10;66.60;;;;;;4937438;29;20490;-88
2022/08/28 21:03:29;;;;;;;0.90;0.80;;;27.10;66.60;;;;;;4937431;29;20494;-88
2022/08/28 21:05:56;;;;;;;1.20;1.10;;;27.10;66.60;;;;;;4937571;29;20538;-88
2022/08/28 21:08:23;;;;;;;1.57;1.47;;;27.10;66.70;;;;;;4937533;29;20447;-88
2022/08/28 21:10:52;;;;;;;1.10;1.00;;;27.10;66.70;;;;;;4937332;29;20539;-88
2022/08/28 21:13:20;;;;;;;1.27;1.17;;;27.10;66.70;;;;;;4937243;29;20439;-88
2022/08/28 21:15:47;;;;;;;1.30;1.13;;;27.10;66.80;;;;;;4937371;29;20659;-88
2022/08/28 21:18:14;;;;;;;1.10;1.00;;;27.10;66.80;;;;;;4937263;29;20529;-87
2022/08/28 21:20:42;;;;;;;0.97;0.87;;;27.10;66.70;;;;;;4937109;29;20495;-88
2022/08/28 21:23:09;;;;;;;1.10;1.00;;;27.10;66.60;;;;;;4936962;29;20443;-88
2022/08/28 21:25:36;;;;;;;1.20;1.10;;;27.10;66.60;;;;;;4936955;29;20481;-88
2022/08/28 21:28:03;;;;;;;1.07;0.97;;;27.10;66.70;;;;;;4937108;29;20882;-88
2022/08/28 21:30:30;;;;;;;1.10;1.00;;;27.10;66.70;;;;;;4937726;29;20533;-87
2022/08/28 21:32:57;;;;;;;1.97;1.20;;;27.10;66.80;;;;;;4936902;29;20461;-88
2022/08/28 21:35:24;;;;;;;1.27;1.17;;;27.10;66.80;;;;;;4936970;29;20586;-88
2022/08/28 21:37:52;;;;;;;1.23;1.00;;;27.10;66.80;;;;;;4936559;29;20479;-88
2022/08/28 21:40:19;;;;;;;1.40;1.30;;;27.10;66.70;;;;;;4936019;29;20454;-88
2022/08/28 21:42:46;;;;;;;1.17;1.07;;;27.10;66.60;;;;;;4936927;29;20800;-88
2022/08/28 21:45:13;;;;;;;1.07;0.97;;;27.10;66.70;;;;;;4937467;29;20859;-88
2022/08/28 21:47:41;;;;;;;1.00;0.90;;;27.10;66.60;;;;;;4936794;29;20853;-87
2022/08/28 21:50:09;;;;;;;1.00;0.90;;;27.10;66.70;;;;;;4936704;29;20872;-88
2022/08/28 21:52:36;;;;;;;1.10;0.93;;;27.10;66.70;;;;;;4936542;29;20450;-88
2022/08/28 21:55:08;;;;;;;1.00;0.83;;;27.10;66.80;;;;;;4936778;29;20491;-88
2022/08/28 21:57:35;;;;;;;1.20;1.10;;;27.10;66.80;;;;;;4936756;29;20475;-88
2022/08/28 22:00:02;;;;;;;2.03;1.00;;;27.10;66.80;;;;;;4936193;29;20530;-89
2022/08/28 22:02:29;;;;;;;1.30;1.20;;;27.10;65.30;;;;;;4936193;29;20451;-85
2022/08/28 22:04:56;;;;;;;3.63;1.20;;;26.90;62.80;;;;;;4936390;29;20534;-86
2022/08/28 22:07:23;;;;;;;2.60;1.47;;;26.80;62.00;;;;;;4936132;29;20535;-86
2022/08/28 22:09:50;;;;;;;1.73;1.20;;;26.90;62.70;;;;;;4929690;29;20527;-84
2022/08/28 22:12:19;;;;;;;2.43;0.90;;;26.90;63.90;;;;;;4934338;29;20814;-86
2022/08/28 22:14:46;;;;;;;1.10;0.97;;;27.00;64.90;;;;;;4936124;29;20488;-83
2022/08/28 22:17:13;;;;;;;1.03;0.93;;;27.00;65.80;;;;;;4936244;29;20447;-87
2022/08/28 22:19:40;;;;;;;1.03;0.93;;;26.90;65.90;;;;;;4935739;29;20915;-85